sensor_id;sensor_type;location;lat;lon;timestamp;pressure;altitude;pressure_sealevel;temperature;humidity
82512;BME280;72152;65.012;25.464;2023-11-21T00:03:04;102351.55;;;-3.65;70.79
82512;BME280;72152;65.012;25.464;2023-11-21T00:06:16;102358.18;;;-3.70;70.39
82512;BME280;72152;65.012;25.464;2023-11-21T00:09:23;102361.98;;;-3.81;70.55
82512;BME280;72152;65.012;25.464;2023-11-21T00:12:39;102364.77;;;-3.87;70.41
82512;BME280;72152;65.012;25.464;2023-11-21T00:15:52;102370.55;;;-3.89;70.47
82512;BME280;72152;65.012;25.464;2023-11-21T00:18:59;102379.08;;;-3.94;70.35
82512;BME280;72152;65.012;25.464;2023-11-21T00:22:11;102383.41;;;-3.98;70.12
82512;BME280;72152;65.012;25.464;2023-11-21T00:25:24;102381.86;;;-4.06;69.94
82512;BME280;72152;65.012;25.464;2023-11-21T00:28:38;102386.89;;;-4.16;69.74
82512;BME280;72152;65.012;25.464;2023-11-21T00:31:49;102392.41;;;-4.25;69.53
82512;BME280;72152;65.012;25.464;2023-11-21T00:34:56;102394.63;;;-4.43;69.34
82512;BME280;72152;65.012;25.464;2023-11-21T00:38:02;102394.82;;;-4.55;69.68
82512;BME280;72152;65.012;25.464;2023-11-21T00:41:03;102398.11;;;-4.61;69.63
82512;BME280;72152;65.012;25.464;2023-11-21T00:44:16;102397.00;;;-4.71;69.57
82512;BME280;72152;65.012;25.464;2023-11-21T00:47:27;102401.19;;;-4.76;69.54
82512;BME280;72152;65.012;25.464;2023-11-21T00:50:32;102404.90;;;-4.83;69.41
82512;BME280;72152;65.012;25.464;2023-11-21T00:53:31;102406.52;;;-4.86;69.42
82512;BME280;72152;65.012;25.464;2023-11-21T00:56:49;102411.49;;;-4.94;69.09
82512;BME280;72152;65.012;25.464;2023-11-21T00:59:54;102418.66;;;-5.04;68.90
82512;BME280;72152;65.012;25.464;2023-11-21T01:02:53;102420.08;;;-5.16;68.69
82512;BME280;72152;65.012;25.464;2023-11-21T01:05:57;102425.41;;;-5.29;68.26
82512;BME280;72152;65.012;25.464;2023-11-21T01:09:07;102427.81;;;-5.54;68.53
82512;BME280;72152;65.012;25.464;2023-11-21T01:12:21;102429.02;;;-5.73;68.42
82512;BME280;72152;65.012;25.464;2023-11-21T01:15:28;102430.05;;;-5.93;68.61
82512;BME280;72152;65.012;25.464;2023-11-21T01:18:46;102435.89;;;-6.06;68.72
82512;BME280;72152;65.012;25.464;2023-11-21T01:21:58;102444.34;;;-6.13;68.59
82512;BME280;72152;65.012;25.464;2023-11-21T01:25:01;102446.11;;;-6.22;68.76
82512;BME280;72152;65.012;25.464;2023-11-21T01:28:07;102451.83;;;-6.30;68.73
82512;BME280;72152;65.012;25.464;2023-11-21T01:31:14;102454.96;;;-6.45;68.76
82512;BME280;72152;65.012;25.464;2023-11-21T01:34:22;102454.38;;;-6.47;68.66
82512;BME280;72152;65.012;25.464;2023-11-21T01:37:31;102455.13;;;-6.57;68.37
82512;BME280;72152;65.012;25.464;2023-11-21T01:40:38;102455.27;;;-6.72;68.32
82512;BME280;72152;65.012;25.464;2023-11-21T01:43:47;102459.52;;;-6.82;68.21
82512;BME280;72152;65.012;25.464;2023-11-21T01:46:53;102464.17;;;-6.94;68.33
82512;BME280;72152;65.012;25.464;2023-11-21T01:49:59;102459.15;;;-7.07;68.50
82512;BME280;72152;65.012;25.464;2023-11-21T01:53:04;102466.55;;;-7.12;68.93
82512;BME280;72152;65.012;25.464;2023-11-21T01:56:18;102473.20;;;-7.12;68.81
82512;BME280;72152;65.012;25.464;2023-11-21T01:59:32;102472.31;;;-7.09;68.95
82512;BME280;72152;65.012;25.464;2023-11-21T02:02:38;102475.17;;;-7.06;68.97
82512;BME280;72152;65.012;25.464;2023-11-21T02:05:46;102472.85;;;-7.02;69.05
82512;BME280;72152;65.012;25.464;2023-11-21T02:08:54;102473.42;;;-6.96;69.06
82512;BME280;72152;65.012;25.464;2023-11-21T02:12:02;102480.98;;;-6.90;68.59
82512;BME280;72152;65.012;25.464;2023-11-21T02:15:13;102487.27;;;-6.94;68.19
82512;BME280;72152;65.012;25.464;2023-11-21T02:18:21;102486.77;;;-7.03;68.49
82512;BME280;72152;65.012;25.464;2023-11-21T02:21:27;102491.84;;;-7.03;68.41
82512;BME280;72152;65.012;25.464;2023-11-21T02:24:33;102490.47;;;-7.09;68.05
82512;BME280;72152;65.012;25.464;2023-11-21T02:27:53;102488.73;;;-7.18;68.07
82512;BME280;72152;65.012;25.464;2023-11-21T02:30:52;102493.43;;;-7.21;68.48
82512;BME280;72152;65.012;25.464;2023-11-21T02:34:04;102491.71;;;-7.28;68.34
82512;BME280;72152;65.012;25.464;2023-11-21T02:37:08;102491.55;;;-7.39;68.55
82512;BME280;72152;65.012;25.464;2023-11-21T02:40:25;102494.64;;;-7.36;68.61
82512;BME280;72152;65.012;25.464;2023-11-21T02:43:30;102494.88;;;-7.36;68.61
82512;BME280;72152;65.012;25.464;2023-11-21T02:46:35;102499.08;;;-7.31;68.75
82512;BME280;72152;65.012;25.464;2023-11-21T02:49:43;102498.27;;;-7.27;68.65
82512;BME280;72152;65.012;25.464;2023-11-21T02:52:55;102514.87;;;-7.29;68.36
82512;BME280;72152;65.012;25.464;2023-11-21T02:55:59;102514.27;;;-7.35;68.72
82512;BME280;72152;65.012;25.464;2023-11-21T02:59:06;102520.35;;;-7.41;68.80
82512;BME280;72152;65.012;25.464;2023-11-21T03:02:10;102517.36;;;-7.37;69.07
82512;BME280;72152;65.012;25.464;2023-11-21T03:05:14;102518.41;;;-7.24;69.07
82512;BME280;72152;65.012;25.464;2023-11-21T03:08:25;102517.20;;;-7.14;69.04
82512;BME280;72152;65.012;25.464;2023-11-21T03:11:37;102525.97;;;-7.10;69.02
82512;BME280;72152;65.012;25.464;2023-11-21T03:14:37;102530.30;;;-7.09;68.82
82512;BME280;72152;65.012;25.464;2023-11-21T03:17:51;102537.81;;;-7.07;68.72
82512;BME280;72152;65.012;25.464;2023-11-21T03:20:57;102538.81;;;-7.08;68.72
82512;BME280;72152;65.012;25.464;2023-11-21T03:24:05;102536.95;;;-7.11;68.77
82512;BME280;72152;65.012;25.464;2023-11-21T03:27:15;102543.52;;;-7.07;68.94
82512;BME280;72152;65.012;25.464;2023-11-21T03:30:30;102546.86;;;-6.99;68.92
82512;BME280;72152;65.012;25.464;2023-11-21T03:33:40;102544.44;;;-7.04;68.98
82512;BME280;72152;65.012;25.464;2023-11-21T03:36:46;102543.77;;;-7.11;69.39
82512;BME280;72152;65.012;25.464;2023-11-21T03:39:57;102543.83;;;-7.11;69.96
82512;BME280;72152;65.012;25.464;2023-11-21T03:42:59;102548.94;;;-7.08;70.32
82512;BME280;72152;65.012;25.464;2023-11-21T03:46:00;102547.27;;;-7.07;70.37
82512;BME280;72152;65.012;25.464;2023-11-21T03:49:10;102551.33;;;-7.11;70.93
82512;BME280;72152;65.012;25.464;2023-11-21T03:52:17;102548.40;;;-7.15;71.17
82512;BME280;72152;65.012;25.464;2023-11-21T03:55:31;102556.98;;;-7.14;71.36
82512;BME280;72152;65.012;25.464;2023-11-21T03:58:49;102561.62;;;-7.12;71.68
82512;BME280;72152;65.012;25.464;2023-11-21T04:02:02;102559.88;;;-7.07;72.06
82512;BME280;72152;65.012;25.464;2023-11-21T04:05:06;102563.73;;;-6.98;72.28
82512;BME280;72152;65.012;25.464;2023-11-21T04:08:19;102567.13;;;-6.93;72.46
82512;BME280;72152;65.012;25.464;2023-11-21T04:11:23;102569.63;;;-6.84;72.41
82512;BME280;72152;65.012;25.464;2023-11-21T04:14:26;102572.21;;;-6.84;72.44
82512;BME280;72152;65.012;25.464;2023-11-21T04:17:37;102577.34;;;-6.82;72.79
82512;BME280;72152;65.012;25.464;2023-11-21T04:20:36;102573.61;;;-6.81;72.73
82512;BME280;72152;65.012;25.464;2023-11-21T04:23:45;102570.85;;;-6.79;72.63
82512;BME280;72152;65.012;25.464;2023-11-21T04:26:58;102571.70;;;-6.79;72.66
82512;BME280;72152;65.012;25.464;2023-11-21T04:30:04;102574.48;;;-6.75;72.98
82512;BME280;72152;65.012;25.464;2023-11-21T04:33:04;102576.93;;;-6.69;73.09
82512;BME280;72152;65.012;25.464;2023-11-21T04:36:17;102580.34;;;-6.68;73.22
82512;BME280;72152;65.012;25.464;2023-11-21T04:39:34;102575.96;;;-6.65;73.25
82512;BME280;72152;65.012;25.464;2023-11-21T04:42:45;102568.86;;;-6.57;73.27
82512;BME280;72152;65.012;25.464;2023-11-21T04:45:50;102570.27;;;-6.48;73.55
82512;BME280;72152;65.012;25.464;2023-11-21T04:48:56;102571.64;;;-6.39;73.53
82512;BME280;72152;65.012;25.464;2023-11-21T04:51:59;102575.54;;;-6.35;73.67
82512;BME280;72152;65.012;25.464;2023-11-21T04:55:02;102578.84;;;-6.33;73.54
82512;BME280;72152;65.012;25.464;2023-11-21T04:58:10;102578.14;;;-6.31;73.57
82512;BME280;72152;65.012;25.464;2023-11-21T05:01:17;102580.70;;;-6.28;73.72
82512;BME280;72152;65.012;25.464;2023-11-21T05:04:24;102587.05;;;-6.26;73.71
82512;BME280;72152;65.012;25.464;2023-11-21T05:07:35;102586.97;;;-6.27;73.46
82512;BME280;72152;65.012;25.464;2023-11-21T05:10:41;102587.55;;;-6.29;73.52
82512;BME280;72152;65.012;25.464;2023-11-21T05:13:47;102591.47;;;-6.32;73.45
82512;BME280;72152;65.012;25.464;2023-11-21T05:16:54;102598.06;;;-6.36;73.61
82512;BME280;72152;65.012;25.464;2023-11-21T05:19:58;102593.70;;;-6.39;73.86
82512;BME280;72152;65.012;25.464;2023-11-21T05:23:02;102593.52;;;-6.37;73.98
82512;BME280;72152;65.012;25.464;2023-11-21T05:26:02;102585.33;;;-6.33;74.19
82512;BME280;72152;65.012;25.464;2023-11-21T05:29:10;102589.11;;;-6.27;74.42
82512;BME280;72152;65.012;25.464;2023-11-21T05:32:18;102595.20;;;-6.15;74.69
82512;BME280;72152;65.012;25.464;2023-11-21T05:35:28;102602.11;;;-6.02;74.65
82512;BME280;72152;65.012;25.464;2023-11-21T05:38:29;102601.64;;;-5.92;74.76
82512;BME280;72152;65.012;25.464;2023-11-21T05:41:38;102610.25;;;-5.88;74.69
82512;BME280;72152;65.012;25.464;2023-11-21T05:44:45;102609.69;;;-5.85;74.74
82512;BME280;72152;65.012;25.464;2023-11-21T05:47:54;102614.33;;;-5.83;74.79
82512;BME280;72152;65.012;25.464;2023-11-21T05:51:03;102617.28;;;-5.78;74.68
82512;BME280;72152;65.012;25.464;2023-11-21T05:54:13;102623.61;;;-5.75;74.81
82512;BME280;72152;65.012;25.464;2023-11-21T05:57:28;102628.38;;;-5.68;74.78
82512;BME280;72152;65.012;25.464;2023-11-21T06:00:38;102631.11;;;-5.66;74.67
82512;BME280;72152;65.012;25.464;2023-11-21T06:03:38;102629.61;;;-5.69;74.89
82512;BME280;72152;65.012;25.464;2023-11-21T06:06:53;102627.39;;;-5.64;74.91
82512;BME280;72152;65.012;25.464;2023-11-21T06:09:53;102627.27;;;-5.57;74.92
82512;BME280;72152;65.012;25.464;2023-11-21T06:13:06;102621.93;;;-5.52;74.71
82512;BME280;72152;65.012;25.464;2023-11-21T06:16:17;102625.52;;;-5.58;74.70
82512;BME280;72152;65.012;25.464;2023-11-21T06:19:27;102632.74;;;-5.60;74.74
82512;BME280;72152;65.012;25.464;2023-11-21T06:22:41;102631.61;;;-5.61;74.66
82512;BME280;72152;65.012;25.464;2023-11-21T06:25:50;102637.15;;;-5.69;74.81
82512;BME280;72152;65.012;25.464;2023-11-21T06:28:59;102643.55;;;-5.69;75.14
82512;BME280;72152;65.012;25.464;2023-11-21T06:32:11;102646.63;;;-5.71;75.13
82512;BME280;72152;65.012;25.464;2023-11-21T06:35:22;102649.67;;;-5.75;75.19
82512;BME280;72152;65.012;25.464;2023-11-21T06:38:36;102648.06;;;-5.72;75.51
82512;BME280;72152;65.012;25.464;2023-11-21T06:41:48;102649.70;;;-5.65;75.62
82512;BME280;72152;65.012;25.464;2023-11-21T06:44:52;102653.70;;;-5.59;75.68
82512;BME280;72152;65.012;25.464;2023-11-21T06:48:06;102658.33;;;-5.57;75.55
82512;BME280;72152;65.012;25.464;2023-11-21T06:51:12;102664.70;;;-5.59;75.14
82512;BME280;72152;65.012;25.464;2023-11-21T06:54:26;102665.55;;;-5.61;75.26
82512;BME280;72152;65.012;25.464;2023-11-21T06:57:31;102661.75;;;-5.69;75.15
82512;BME280;72152;65.012;25.464;2023-11-21T07:00:38;102664.19;;;-5.74;75.28
82512;BME280;72152;65.012;25.464;2023-11-21T07:03:49;102665.51;;;-5.76;75.49
82512;BME280;72152;65.012;25.464;2023-11-21T07:06:59;102667.34;;;-5.80;75.31
82512;BME280;72152;65.012;25.464;2023-11-21T07:10:13;102668.05;;;-5.82;75.45
82512;BME280;72152;65.012;25.464;2023-11-21T07:13:27;102667.71;;;-5.78;75.38
82512;BME280;72152;65.012;25.464;2023-11-21T07:16:42;102668.87;;;-5.75;75.01
82512;BME280;72152;65.012;25.464;2023-11-21T07:19:45;102673.71;;;-5.74;74.92
82512;BME280;72152;65.012;25.464;2023-11-21T07:26:06;102673.92;;;-5.72;75.10
82512;BME280;72152;65.012;25.464;2023-11-21T07:29:15;102674.81;;;-5.65;75.14
82512;BME280;72152;65.012;25.464;2023-11-21T07:32:23;102678.40;;;-5.61;74.71
82512;BME280;72152;65.012;25.464;2023-11-21T07:35:28;102682.91;;;-5.68;74.45
82512;BME280;72152;65.012;25.464;2023-11-21T07:38:33;102688.90;;;-5.77;74.18
82512;BME280;72152;65.012;25.464;2023-11-21T07:41:37;102691.15;;;-5.90;74.45
82512;BME280;72152;65.012;25.464;2023-11-21T07:44:51;102694.74;;;-5.90;74.49
82512;BME280;72152;65.012;25.464;2023-11-21T07:47:58;102699.27;;;-5.85;74.58
82512;BME280;72152;65.012;25.464;2023-11-21T07:51:06;102701.42;;;-5.86;74.41
82512;BME280;72152;65.012;25.464;2023-11-21T07:54:13;102704.20;;;-5.95;74.45
82512;BME280;72152;65.012;25.464;2023-11-21T07:57:21;102707.13;;;-5.98;74.73
82512;BME280;72152;65.012;25.464;2023-11-21T08:00:34;102708.49;;;-5.91;74.63
82512;BME280;72152;65.012;25.464;2023-11-21T08:03:36;102706.42;;;-5.84;74.74
82512;BME280;72152;65.012;25.464;2023-11-21T08:06:43;102709.14;;;-5.81;74.78
82512;BME280;72152;65.012;25.464;2023-11-21T08:09:48;102714.81;;;-5.75;74.56
82512;BME280;72152;65.012;25.464;2023-11-21T08:12:54;102715.63;;;-5.70;74.42
82512;BME280;72152;65.012;25.464;2023-11-21T08:16:21;102716.85;;;-5.66;74.30
82512;BME280;72152;65.012;25.464;2023-11-21T08:19:34;102717.32;;;-5.57;74.24
82512;BME280;72152;65.012;25.464;2023-11-21T08:26:09;102712.98;;;-5.59;73.79
82512;BME280;72152;65.012;25.464;2023-11-21T08:29:21;102714.75;;;-5.65;73.88
82512;BME280;72152;65.012;25.464;2023-11-21T08:32:29;102712.48;;;-5.61;73.83
82512;BME280;72152;65.012;25.464;2023-11-21T08:35:37;102711.75;;;-5.60;73.80
82512;BME280;72152;65.012;25.464;2023-11-21T08:38:44;102712.84;;;-5.56;73.80
82512;BME280;72152;65.012;25.464;2023-11-21T08:41:54;102712.96;;;-5.56;73.85
82512;BME280;72152;65.012;25.464;2023-11-21T08:45:01;102713.33;;;-5.52;73.84
82512;BME280;72152;65.012;25.464;2023-11-21T08:48:11;102714.31;;;-5.49;73.80
82512;BME280;72152;65.012;25.464;2023-11-21T08:51:17;102711.54;;;-5.48;73.94
82512;BME280;72152;65.012;25.464;2023-11-21T08:54:28;102715.47;;;-5.42;73.84
82512;BME280;72152;65.012;25.464;2023-11-21T08:57:35;102718.54;;;-5.46;73.81
82512;BME280;72152;65.012;25.464;2023-11-21T09:00:47;102716.45;;;-5.50;73.99
82512;BME280;72152;65.012;25.464;2023-11-21T09:03:49;102718.35;;;-5.44;74.07
82512;BME280;72152;65.012;25.464;2023-11-21T09:06:57;102716.89;;;-5.36;74.01
82512;BME280;72152;65.012;25.464;2023-11-21T09:10:09;102718.48;;;-5.26;74.08
82512;BME280;72152;65.012;25.464;2023-11-21T09:13:13;102720.77;;;-5.15;73.82
82512;BME280;72152;65.012;25.464;2023-11-21T09:16:21;102723.05;;;-5.11;73.68
82512;BME280;72152;65.012;25.464;2023-11-21T09:19:33;102726.52;;;-5.12;73.59
82512;BME280;72152;65.012;25.464;2023-11-21T09:22:39;102728.75;;;-5.16;73.48
82512;BME280;72152;65.012;25.464;2023-11-21T09:25:44;102730.28;;;-5.21;73.41
82512;BME280;72152;65.012;25.464;2023-11-21T09:28:52;102729.48;;;-5.28;73.46
82512;BME280;72152;65.012;25.464;2023-11-21T09:31:57;102733.88;;;-5.35;73.77
82512;BME280;72152;65.012;25.464;2023-11-21T09:34:59;102738.77;;;-5.35;73.80
82512;BME280;72152;65.012;25.464;2023-11-21T09:38:08;102739.47;;;-5.35;73.87
82512;BME280;72152;65.012;25.464;2023-11-21T09:41:21;102736.30;;;-5.32;73.90
82512;BME280;72152;65.012;25.464;2023-11-21T09:44:30;102734.38;;;-5.29;74.09
82512;BME280;72152;65.012;25.464;2023-11-21T09:47:45;102730.96;;;-5.27;74.10
82512;BME280;72152;65.012;25.464;2023-11-21T09:51:00;102728.34;;;-5.24;74.29
82512;BME280;72152;65.012;25.464;2023-11-21T09:54:08;102734.42;;;-5.17;74.35
82512;BME280;72152;65.012;25.464;2023-11-21T09:57:18;102729.37;;;-5.20;74.30
82512;BME280;72152;65.012;25.464;2023-11-21T10:00:29;102733.23;;;-5.19;74.60
82512;BME280;72152;65.012;25.464;2023-11-21T10:03:38;102730.14;;;-5.08;74.68
82512;BME280;72152;65.012;25.464;2023-11-21T10:06:53;102730.06;;;-4.96;74.69
82512;BME280;72152;65.012;25.464;2023-11-21T10:09:59;102725.91;;;-4.94;74.60
82512;BME280;72152;65.012;25.464;2023-11-21T10:13:08;102727.73;;;-5.03;74.53
82512;BME280;72152;65.012;25.464;2023-11-21T10:16:26;102731.27;;;-5.16;74.54
82512;BME280;72152;65.012;25.464;2023-11-21T10:19:39;102735.62;;;-5.23;74.61
82512;BME280;72152;65.012;25.464;2023-11-21T10:22:43;102738.75;;;-5.23;74.41
82512;BME280;72152;65.012;25.464;2023-11-21T10:25:53;102737.98;;;-5.25;74.36
82512;BME280;72152;65.012;25.464;2023-11-21T10:29:19;102743.07;;;-5.22;74.34
82512;BME280;72152;65.012;25.464;2023-11-21T10:32:36;102744.10;;;-5.15;74.50
82512;BME280;72152;65.012;25.464;2023-11-21T10:35:53;102747.38;;;-5.09;74.57
82512;BME280;72152;65.012;25.464;2023-11-21T10:39:05;102751.96;;;-5.04;74.69
82512;BME280;72152;65.012;25.464;2023-11-21T10:42:01;102749.60;;;-5.02;74.66
82512;BME280;72152;65.012;25.464;2023-11-21T10:45:18;102752.71;;;-4.99;74.66
82512;BME280;72152;65.012;25.464;2023-11-21T10:48:24;102754.85;;;-4.91;74.53
82512;BME280;72152;65.012;25.464;2023-11-21T10:51:34;102750.77;;;-4.89;74.44
82512;BME280;72152;65.012;25.464;2023-11-21T10:54:44;102747.33;;;-4.80;74.38
82512;BME280;72152;65.012;25.464;2023-11-21T10:57:55;102741.15;;;-4.72;74.28
82512;BME280;72152;65.012;25.464;2023-11-21T11:01:01;102744.12;;;-4.68;74.01
82512;BME280;72152;65.012;25.464;2023-11-21T11:04:13;102749.54;;;-4.74;73.99
82512;BME280;72152;65.012;25.464;2023-11-21T11:07:27;102751.58;;;-4.69;74.04
82512;BME280;72152;65.012;25.464;2023-11-21T11:10:29;102758.59;;;-4.61;73.99
82512;BME280;72152;65.012;25.464;2023-11-21T11:13:33;102758.58;;;-4.56;73.79
82512;BME280;72152;65.012;25.464;2023-11-21T11:16:41;102751.71;;;-4.52;73.61
82512;BME280;72152;65.012;25.464;2023-11-21T11:19:50;102746.73;;;-4.46;73.50
82512;BME280;72152;65.012;25.464;2023-11-21T11:23:10;102754.08;;;-4.44;73.41
82512;BME280;72152;65.012;25.464;2023-11-21T11:26:32;102754.23;;;-4.41;73.41
82512;BME280;72152;65.012;25.464;2023-11-21T11:29:41;102753.06;;;-4.37;73.53
82512;BME280;72152;65.012;25.464;2023-11-21T11:33:02;102753.16;;;-4.32;73.62
82512;BME280;72152;65.012;25.464;2023-11-21T11:36:15;102748.31;;;-4.24;73.28
82512;BME280;72152;65.012;25.464;2023-11-21T11:42:41;102750.73;;;-4.30;73.07
82512;BME280;72152;65.012;25.464;2023-11-21T11:46:15;102751.83;;;-4.35;72.97
82512;BME280;72152;65.012;25.464;2023-11-21T11:49:30;102757.44;;;-4.36;72.92
82512;BME280;72152;65.012;25.464;2023-11-21T11:52:45;102763.91;;;-4.42;72.70
82512;BME280;72152;65.012;25.464;2023-11-21T11:55:51;102762.86;;;-4.48;72.62
82512;BME280;72152;65.012;25.464;2023-11-21T11:59:01;102760.30;;;-4.50;72.77
82512;BME280;72152;65.012;25.464;2023-11-21T12:02:06;102762.95;;;-4.49;72.84
82512;BME280;72152;65.012;25.464;2023-11-21T12:05:23;102764.24;;;-4.55;72.83
82512;BME280;72152;65.012;25.464;2023-11-21T12:08:39;102772.14;;;-4.61;72.90
82512;BME280;72152;65.012;25.464;2023-11-21T12:11:54;102776.31;;;-4.69;72.92
82512;BME280;72152;65.012;25.464;2023-11-21T12:15:05;102773.12;;;-4.72;73.01
82512;BME280;72152;65.012;25.464;2023-11-21T12:18:11;102771.16;;;-4.71;72.99
82512;BME280;72152;65.012;25.464;2023-11-21T12:21:13;102775.85;;;-4.78;72.70
82512;BME280;72152;65.012;25.464;2023-11-21T12:24:22;102777.42;;;-4.85;72.85
82512;BME280;72152;65.012;25.464;2023-11-21T12:27:28;102781.98;;;-4.87;72.88
82512;BME280;72152;65.012;25.464;2023-11-21T12:30:36;102782.42;;;-4.85;72.99
82512;BME280;72152;65.012;25.464;2023-11-21T12:33:40;102787.21;;;-4.88;73.10
82512;BME280;72152;65.012;25.464;2023-11-21T12:40:16;102789.77;;;-4.96;72.93
82512;BME280;72152;65.012;25.464;2023-11-21T12:43:19;102785.60;;;-4.98;73.15
82512;BME280;72152;65.012;25.464;2023-11-21T12:46:25;102780.50;;;-4.92;73.07
82512;BME280;72152;65.012;25.464;2023-11-21T12:49:30;102778.02;;;-4.86;73.05
82512;BME280;72152;65.012;25.464;2023-11-21T12:52:37;102778.61;;;-4.75;73.00
82512;BME280;72152;65.012;25.464;2023-11-21T12:55:45;102777.84;;;-4.73;72.80
82512;BME280;72152;65.012;25.464;2023-11-21T12:58:55;102780.80;;;-4.78;72.68
82512;BME280;72152;65.012;25.464;2023-11-21T13:02:00;102781.53;;;-4.79;72.78
82512;BME280;72152;65.012;25.464;2023-11-21T13:05:09;102777.20;;;-4.78;72.92
82512;BME280;72152;65.012;25.464;2023-11-21T13:08:19;102778.67;;;-4.73;72.92
82512;BME280;72152;65.012;25.464;2023-11-21T13:11:24;102770.81;;;-4.69;72.81
82512;BME280;72152;65.012;25.464;2023-11-21T13:14:35;102768.86;;;-4.64;72.79
82512;BME280;72152;65.012;25.464;2023-11-21T13:17:45;102776.46;;;-4.59;72.72
82512;BME280;72152;65.012;25.464;2023-11-21T13:20:49;102779.27;;;-4.56;72.55
82512;BME280;72152;65.012;25.464;2023-11-21T13:24:00;102780.96;;;-4.61;72.22
82512;BME280;72152;65.012;25.464;2023-11-21T13:26:59;102787.76;;;-4.69;72.11
82512;BME280;72152;65.012;25.464;2023-11-21T13:30:01;102782.73;;;-4.73;72.25
82512;BME280;72152;65.012;25.464;2023-11-21T13:33:06;102786.49;;;-4.72;72.24
82512;BME280;72152;65.012;25.464;2023-11-21T13:36:32;102793.98;;;-4.78;72.27
82512;BME280;72152;65.012;25.464;2023-11-21T13:39:41;102786.77;;;-4.90;72.33
82512;BME280;72152;65.012;25.464;2023-11-21T13:42:54;102788.39;;;-4.93;72.38
82512;BME280;72152;65.012;25.464;2023-11-21T13:46:09;102791.87;;;-4.86;72.41
82512;BME280;72152;65.012;25.464;2023-11-21T13:49:28;102795.13;;;-4.83;72.42
82512;BME280;72152;65.012;25.464;2023-11-21T13:52:37;102799.63;;;-4.77;72.30
82512;BME280;72152;65.012;25.464;2023-11-21T13:55:44;102804.15;;;-4.72;72.18
82512;BME280;72152;65.012;25.464;2023-11-21T13:58:55;102800.34;;;-4.73;72.12
82512;BME280;72152;65.012;25.464;2023-11-21T14:02:10;102800.35;;;-4.71;72.08
82512;BME280;72152;65.012;25.464;2023-11-21T14:05:36;102806.64;;;-4.66;72.06
82512;BME280;72152;65.012;25.464;2023-11-21T14:08:44;102807.05;;;-4.69;71.69
82512;BME280;72152;65.012;25.464;2023-11-21T14:12:02;102805.83;;;-4.72;71.79
82512;BME280;72152;65.012;25.464;2023-11-21T14:15:07;102805.88;;;-4.74;71.78
82512;BME280;72152;65.012;25.464;2023-11-21T14:18:26;102803.45;;;-4.72;71.63
82512;BME280;72152;65.012;25.464;2023-11-21T14:21:37;102801.66;;;-4.72;71.61
82512;BME280;72152;65.012;25.464;2023-11-21T14:25:08;102805.89;;;-4.72;71.64
82512;BME280;72152;65.012;25.464;2023-11-21T14:28:19;102808.49;;;-4.72;71.43
82512;BME280;72152;65.012;25.464;2023-11-21T14:34:56;102815.41;;;-4.84;71.42
82512;BME280;72152;65.012;25.464;2023-11-21T14:38:02;102812.81;;;-4.90;71.48
82512;BME280;72152;65.012;25.464;2023-11-21T14:41:15;102815.01;;;-4.89;71.50
82512;BME280;72152;65.012;25.464;2023-11-21T14:44:24;102813.81;;;-4.85;71.56
82512;BME280;72152;65.012;25.464;2023-11-21T14:47:36;102816.86;;;-4.80;71.38
82512;BME280;72152;65.012;25.464;2023-11-21T14:50:55;102818.66;;;-4.81;71.18
82512;BME280;72152;65.012;25.464;2023-11-21T14:54:18;102817.50;;;-4.80;71.28
82512;BME280;72152;65.012;25.464;2023-11-21T14:57:37;102817.45;;;-4.75;71.33
82512;BME280;72152;65.012;25.464;2023-11-21T15:04:15;102819.55;;;-4.69;71.19
82512;BME280;72152;65.012;25.464;2023-11-21T15:07:28;102818.09;;;-4.64;71.03
82512;BME280;72152;65.012;25.464;2023-11-21T15:10:32;102820.90;;;-4.66;70.94
82512;BME280;72152;65.012;25.464;2023-11-21T15:13:45;102824.35;;;-4.80;70.17
82512;BME280;72152;65.012;25.464;2023-11-21T15:16:54;102822.64;;;-5.10;70.28
82512;BME280;72152;65.012;25.464;2023-11-21T15:20:01;102823.17;;;-5.39;70.42
82512;BME280;72152;65.012;25.464;2023-11-21T15:23:11;102821.11;;;-5.55;70.85
82512;BME280;72152;65.012;25.464;2023-11-21T15:26:21;102826.02;;;-5.63;71.19
82512;BME280;72152;65.012;25.464;2023-11-21T15:29:29;102826.52;;;-5.66;71.20
82512;BME280;72152;65.012;25.464;2023-11-21T15:32:41;102830.98;;;-5.68;71.33
82512;BME280;72152;65.012;25.464;2023-11-21T15:36:00;102835.61;;;-5.68;71.44
82512;BME280;72152;65.012;25.464;2023-11-21T15:39:10;102840.23;;;-5.61;71.44
82512;BME280;72152;65.012;25.464;2023-11-21T15:42:24;102833.80;;;-5.55;71.56
82512;BME280;72152;65.012;25.464;2023-11-21T15:45:31;102827.23;;;-5.50;71.62
82512;BME280;72152;65.012;25.464;2023-11-21T15:48:42;102830.34;;;-5.43;71.74
82512;BME280;72152;65.012;25.464;2023-11-21T15:51:52;102834.52;;;-5.39;71.65
82512;BME280;72152;65.012;25.464;2023-11-21T15:55:14;102833.86;;;-5.36;71.88
82512;BME280;72152;65.012;25.464;2023-11-21T16:01:36;102830.34;;;-5.23;71.85
82512;BME280;72152;65.012;25.464;2023-11-21T16:04:52;102826.93;;;-5.17;72.00
82512;BME280;72152;65.012;25.464;2023-11-21T16:08:04;102824.34;;;-5.10;72.02
82512;BME280;72152;65.012;25.464;2023-11-21T16:11:12;102820.95;;;-5.02;72.07
82512;BME280;72152;65.012;25.464;2023-11-21T16:14:28;102820.42;;;-5.04;71.73
82512;BME280;72152;65.012;25.464;2023-11-21T16:17:33;102827.28;;;-5.11;71.89
82512;BME280;72152;65.012;25.464;2023-11-21T16:20:39;102824.23;;;-5.08;72.02
82512;BME280;72152;65.012;25.464;2023-11-21T16:23:44;102819.89;;;-5.03;72.14
82512;BME280;72152;65.012;25.464;2023-11-21T16:26:56;102823.15;;;-4.99;72.28
82512;BME280;72152;65.012;25.464;2023-11-21T16:30:16;102824.30;;;-4.97;72.36
82512;BME280;72152;65.012;25.464;2023-11-21T16:33:41;102819.89;;;-4.93;72.31
82512;BME280;72152;65.012;25.464;2023-11-21T16:36:59;102820.94;;;-4.93;72.49
82512;BME280;72152;65.012;25.464;2023-11-21T16:40:13;102812.59;;;-4.87;72.55
82512;BME280;72152;65.012;25.464;2023-11-21T16:43:59;102814.25;;;-4.86;72.43